createdAt,value
2019-05-09T00:00:24.543Z,17.64
2019-05-09T00:02:50.890Z,17.48
2019-05-09T00:05:17.212Z,17.36
2019-05-09T00:07:44.016Z,17.93
2019-05-09T00:10:11.427Z,18.36
2019-05-09T00:12:37.713Z,18.83
2019-05-09T00:15:04.798Z,18.48
2019-05-09T00:17:31.111Z,17.79
2019-05-09T00:19:59.199Z,18.88
2019-05-09T00:22:25.371Z,18.88
2019-05-09T00:24:53.789Z,18.39
2019-05-09T00:27:19.684Z,18.80
2019-05-09T00:29:47.747Z,19.48
2019-05-09T00:32:18.383Z,19.46
2019-05-09T00:34:58.167Z,19.40
2019-05-09T00:37:43.199Z,18.96
2019-05-09T00:40:09.697Z,19.02
2019-05-09T00:42:35.980Z,18.41
2019-05-09T00:45:06.674Z,18.43
2019-05-09T00:47:33.038Z,19.26
2019-05-09T00:49:59.224Z,19.34
2019-05-09T00:52:25.545Z,19.35
2019-05-09T00:54:53.147Z,18.66
2019-05-09T00:57:34.362Z,18.93
2019-05-09T01:00:04.901Z,18.69
2019-05-09T01:02:31.063Z,18.67
2019-05-09T01:04:57.303Z,18.38
2019-05-09T01:07:23.555Z,18.54
2019-05-09T01:09:49.846Z,18.62
2019-05-09T01:12:16.062Z,18.44
2019-05-09T01:14:43.268Z,18.36
2019-05-09T01:17:09.629Z,18.77
2019-05-09T01:19:35.829Z,18.41
2019-05-09T01:22:03.750Z,18.05
2019-05-09T01:24:30.070Z,19.10
2019-05-09T01:26:56.299Z,18.57
2019-05-09T01:29:23.105Z,17.87
2019-05-09T01:31:49.428Z,18.02
2019-05-09T01:34:20.461Z,18.18
2019-05-09T01:37:05.808Z,18.09
2019-05-09T01:39:33.781Z,17.71
2019-05-09T01:42:00.024Z,18.54
2019-05-09T01:44:27.584Z,18.52
2019-05-09T01:46:54.148Z,18.74
2019-05-09T01:49:20.454Z,18.45
2019-05-09T01:51:46.636Z,18.27
2019-05-09T01:54:14.337Z,18.12
2019-05-09T01:56:40.526Z,17.61
2019-05-09T01:59:06.685Z,18.06
2019-05-09T02:01:34.400Z,18.18
2019-05-09T02:04:00.763Z,17.93
2019-05-09T02:06:28.084Z,17.61
2019-05-09T02:08:54.760Z,17.42
2019-05-09T02:11:21.035Z,18.05
2019-05-09T02:13:47.214Z,18.58
2019-05-09T02:16:15.323Z,18.55
2019-05-09T02:18:49.204Z,18.58
2019-05-09T02:21:15.388Z,18.35
2019-05-09T02:23:43.179Z,19.28
2019-05-09T02:26:09.686Z,18.58
2019-05-09T02:28:35.842Z,18.53
2019-05-09T02:31:05.189Z,18.20
2019-05-09T02:33:30.245Z,17.62
2019-05-09T02:35:58.292Z,17.15
2019-05-09T02:38:24.598Z,16.72
2019-05-09T02:40:50.782Z,17.06
2019-05-09T02:43:18.629Z,17.13
2019-05-09T02:45:52.834Z,17.19
2019-05-09T02:48:18.680Z,16.77
2019-05-09T02:50:48.240Z,17.15
2019-05-09T02:53:13.183Z,17.49
2019-05-09T02:55:39.354Z,17.44
2019-05-09T02:58:08.283Z,17.62
2019-05-09T03:00:39.490Z,17.20
2019-05-09T03:03:09.666Z,17.33
2019-05-09T03:05:38.297Z,17.51
2019-05-09T03:08:04.113Z,17.33
2019-05-09T03:10:30.277Z,17.70
2019-05-09T03:12:59.412Z,17.73
2019-05-09T03:15:24.877Z,18.05
2019-05-09T03:17:51.062Z,18.17
2019-05-09T03:20:25.151Z,18.72
2019-05-09T03:22:51.341Z,18.93
2019-05-09T03:25:19.137Z,18.86
2019-05-09T03:27:59.462Z,19.45
2019-05-09T03:30:29.087Z,21.16
2019-05-09T03:32:59.417Z,22.76
2019-05-09T03:35:23.745Z,23.76
2019-05-09T03:38:04.973Z,24.39
2019-05-09T03:40:32.172Z,25.25
2019-05-09T03:42:58.473Z,25.79
2019-05-09T03:45:24.648Z,26.45
2019-05-09T03:47:52.762Z,26.58
2019-05-09T03:50:18.962Z,26.86
2019-05-09T03:52:45.125Z,28.27
2019-05-09T03:55:13.544Z,29.42
2019-05-09T03:57:41.606Z,30.53
2019-05-09T04:00:09.180Z,30.25
2019-05-09T04:02:35.382Z,30.40
2019-05-09T04:05:01.551Z,30.61
2019-05-09T04:07:29.716Z,31.00
2019-05-09T04:09:58.386Z,32.17
2019-05-09T04:12:24.008Z,32.68
2019-05-09T04:14:50.159Z,33.01
2019-05-09T04:17:18.127Z,33.87
2019-05-09T04:19:44.743Z,33.20
2019-05-09T04:22:10.903Z,32.70
2019-05-09T04:24:38.337Z,34.19
2019-05-09T04:27:07.796Z,33.58
2019-05-09T04:29:34.157Z,33.22
2019-05-09T04:32:00.448Z,34.29
2019-05-09T04:34:27.574Z,35.19
2019-05-09T04:36:54.079Z,34.62
2019-05-09T04:39:23.661Z,31.69
2019-05-09T04:41:48.843Z,32.67
2019-05-09T04:44:20.908Z,32.97
2019-05-09T04:46:45.232Z,33.20
2019-05-09T04:49:11.493Z,32.50
2019-05-09T04:51:39.341Z,31.95
2019-05-09T04:54:07.324Z,32.26
2019-05-09T04:56:38.039Z,30.96
2019-05-09T04:59:03.839Z,29.43
2019-05-09T05:01:38.927Z,28.55
2019-05-09T05:04:07.735Z,29.59
2019-05-09T05:06:34.180Z,30.50
2019-05-09T05:09:00.366Z,31.10
2019-05-09T05:11:28.025Z,31.81
2019-05-09T05:13:54.248Z,31.59
2019-05-09T05:16:20.511Z,30.72
2019-05-09T05:18:47.814Z,29.91
2019-05-09T05:21:14.218Z,29.58
2019-05-09T05:23:48.336Z,30.08
2019-05-09T05:26:14.718Z,29.24
2019-05-09T05:28:40.901Z,28.31
2019-05-09T05:31:07.481Z,26.95
2019-05-09T05:33:41.665Z,26.42
2019-05-09T05:36:09.757Z,27.63
2019-05-09T05:38:37.667Z,29.19
2019-05-09T05:41:03.990Z,29.40
2019-05-09T05:43:40.832Z,30.34
2019-05-09T05:46:00.170Z,29.62
2019-05-09T05:48:28.248Z,30.61
2019-05-09T05:50:54.452Z,31.56
2019-05-09T05:53:20.605Z,29.90
2019-05-09T05:55:49.399Z,29.38
2019-05-09T05:58:14.900Z,30.52
2019-05-09T06:00:41.149Z,31.87
2019-05-09T06:03:08.770Z,29.63
2019-05-09T06:05:35.323Z,31.29
2019-05-09T06:08:01.499Z,31.04
2019-05-09T06:10:28.981Z,30.23
2019-05-09T06:12:57.572Z,30.37
2019-05-09T06:15:23.578Z,29.94
2019-05-09T06:17:49.836Z,29.06
2019-05-09T06:20:17.712Z,27.86
2019-05-09T06:22:44.229Z,28.59
2019-05-09T06:25:10.406Z,29.34
2019-05-09T06:27:37.555Z,28.46
2019-05-09T06:30:08.460Z,28.99
2019-05-09T06:32:34.150Z,28.49
2019-05-09T06:35:00.336Z,28.97
2019-05-09T06:37:27.695Z,30.31
2019-05-09T06:39:54.198Z,30.03
2019-05-09T06:42:20.393Z,28.71
2019-05-09T06:45:04.685Z,29.05
2019-05-09T06:47:35.296Z,30.21
2019-05-09T06:50:08.011Z,30.12
2019-05-09T06:52:34.504Z,30.89
2019-05-09T06:55:00.711Z,30.22
2019-05-09T06:57:28.085Z,29.03
2019-05-09T06:59:54.662Z,28.31
2019-05-09T07:02:31.557Z,29.92
2019-05-09T07:07:52.305Z,30.06
2019-05-09T07:10:18.467Z,29.09
2019-05-09T07:12:44.791Z,29.45
2019-05-09T07:15:11.071Z,30.11
2019-05-09T07:17:38.720Z,29.45
2019-05-09T07:20:08.151Z,30.17
2019-05-09T07:22:41.187Z,30.47
2019-05-09T07:25:12.851Z,29.64
2019-05-09T07:27:40.457Z,30.18
2019-05-09T07:30:12.589Z,29.56
2019-05-09T07:32:40.678Z,29.65
2019-05-09T07:35:08.902Z,28.32
2019-05-09T07:37:35.245Z,28.42
2019-05-09T07:40:01.425Z,29.04
2019-05-09T07:42:28.466Z,30.48
2019-05-09T07:44:54.925Z,30.58
2019-05-09T07:47:21.108Z,31.07
2019-05-09T07:49:48.247Z,30.05
2019-05-09T07:52:14.790Z,30.59
2019-05-09T07:54:40.960Z,29.47
2019-05-09T07:57:08.572Z,30.29
2019-05-09T07:59:34.958Z,29.20
2019-05-09T08:02:01.228Z,29.80
2019-05-09T08:04:28.604Z,28.71
2019-05-09T08:06:57.502Z,29.55
2019-05-09T08:09:23.200Z,28.90
2019-05-09T08:11:49.373Z,28.39
2019-05-09T08:14:17.635Z,28.78
2019-05-09T08:16:43.671Z,28.42
2019-05-09T08:19:11.198Z,28.49
2019-05-09T08:21:38.282Z,29.56
2019-05-09T08:24:04.788Z,30.42
2019-05-09T08:26:31.257Z,31.10
2019-05-09T08:28:58.392Z,31.26
2019-05-09T08:31:24.881Z,31.15
2019-05-09T08:33:51.054Z,30.02
2019-05-09T08:36:18.067Z,29.98
2019-05-09T08:38:47.608Z,29.68
2019-05-09T08:41:14.425Z,28.74
2019-05-09T08:43:40.733Z,29.53
2019-05-09T08:46:07.902Z,29.73
2019-05-09T08:48:34.406Z,29.49
2019-05-09T08:51:02.516Z,29.56
2019-05-09T08:53:28.693Z,30.70
2019-05-09T08:55:54.978Z,31.73
2019-05-09T08:58:21.212Z,32.02
2019-05-09T09:00:49.011Z,32.48
2019-05-09T09:03:15.533Z,31.64
2019-05-09T09:05:43.673Z,31.44
2019-05-09T09:08:09.830Z,31.95
2019-05-09T09:10:38.498Z,33.39
2019-05-09T09:13:04.234Z,34.41
2019-05-09T09:15:56.139Z,33.16
2019-05-09T09:17:58.571Z,33.50
2019-05-09T09:20:24.801Z,33.02
2019-05-09T09:22:50.990Z,32.70
2019-05-09T09:25:18.447Z,31.17
2019-05-09T09:27:50.178Z,32.46
2019-05-09T09:30:20.222Z,31.76
2019-05-09T09:32:41.242Z,31.08
2019-05-09T09:35:09.257Z,31.83
2019-05-09T09:37:47.719Z,32.87
2019-05-09T09:40:08.646Z,33.20
2019-05-09T09:42:34.944Z,32.56
2019-05-09T09:45:01.109Z,31.03
2019-05-09T09:47:28.604Z,30.88
2019-05-09T09:49:55.894Z,32.32
2019-05-09T09:52:23.385Z,32.15
2019-05-09T09:54:49.562Z,31.98
2019-05-09T09:57:18.819Z,31.85
2019-05-09T09:59:48.353Z,33.02
2019-05-09T10:02:15.781Z,32.92
2019-05-09T10:04:41.983Z,33.74
2019-05-09T10:07:08.913Z,34.85
2019-05-09T10:09:35.533Z,33.08
2019-05-09T10:12:01.940Z,32.57
2019-05-09T10:14:30.061Z,32.42
2019-05-09T10:19:54.184Z,33.67
2019-05-09T10:22:25.026Z,33.97
2019-05-09T10:24:50.368Z,33.81
2019-05-09T10:27:19.750Z,35.39
2019-05-09T10:29:47.963Z,34.95
2019-05-09T10:32:18.251Z,35.18
2019-05-09T10:34:44.244Z,32.20
2019-05-09T10:37:10.619Z,31.89
2019-05-09T10:39:43.584Z,32.57
2019-05-09T10:42:28.646Z,34.29
2019-05-09T10:45:07.433Z,36.25
2019-05-09T10:47:34.872Z,36.00
2019-05-09T10:50:01.040Z,34.30
2019-05-09T10:52:28.339Z,34.57
2019-05-09T10:54:54.936Z,35.22
2019-05-09T10:57:21.131Z,33.69
2019-05-09T10:59:48.258Z,33.66
2019-05-09T11:02:17.383Z,32.87
2019-05-09T11:04:47.024Z,33.15
2019-05-09T11:07:19.163Z,32.46
2019-05-09T11:09:47.874Z,33.48
2019-05-09T11:12:13.473Z,34.19
2019-05-09T11:14:39.687Z,33.58
2019-05-09T11:17:15.898Z,33.14
2019-05-09T11:19:34.980Z,31.88
2019-05-09T11:22:01.161Z,33.00
2019-05-09T11:24:41.144Z,34.39
2019-05-09T11:26:55.720Z,33.11
2019-05-09T11:29:21.906Z,33.58
2019-05-09T11:31:48.116Z,31.66
2019-05-09T11:34:14.293Z,31.90
2019-05-09T11:36:40.471Z,31.39
2019-05-09T11:39:10.727Z,32.47
2019-05-09T11:41:38.155Z,32.34
2019-05-09T11:44:03.432Z,31.85
2019-05-09T11:46:29.648Z,31.13
2019-05-09T11:48:57.937Z,31.39
2019-05-09T11:51:23.891Z,31.40
2019-05-09T11:53:50.103Z,30.06
2019-05-09T11:56:18.055Z,31.45
2019-05-09T11:58:44.662Z,30.97
2019-05-09T12:01:10.971Z,31.19
2019-05-09T12:03:38.920Z,31.41
2019-05-09T12:06:07.795Z,31.53
2019-05-09T12:08:33.517Z,31.82
2019-05-09T12:10:59.706Z,31.75
2019-05-09T12:13:25.869Z,31.50
2019-05-09T12:15:52.088Z,31.79
2019-05-09T12:18:18.380Z,32.27
2019-05-09T12:20:44.557Z,32.38
2019-05-09T12:23:10.873Z,32.47
2019-05-09T12:25:38.603Z,34.12
2019-05-09T12:28:07.672Z,32.37
2019-05-09T12:30:33.244Z,33.72
2019-05-09T12:32:59.497Z,34.05
2019-05-09T12:35:25.654Z,34.60
2019-05-09T12:37:51.864Z,32.54
2019-05-09T12:40:20.157Z,32.59
2019-05-09T12:42:46.209Z,32.44
2019-05-09T12:45:12.514Z,33.11
2019-05-09T12:47:39.690Z,34.10
2019-05-09T12:50:08.679Z,34.59
2019-05-09T12:52:35.064Z,33.86
2019-05-09T12:55:01.238Z,33.71
2019-05-09T12:57:28.911Z,33.23
2019-05-09T12:59:55.563Z,34.65
2019-05-09T13:02:21.809Z,33.56
2019-05-09T13:04:48.115Z,34.12
2019-05-09T13:07:14.315Z,33.89
2019-05-09T13:09:40.479Z,34.14
2019-05-09T13:12:08.597Z,33.25
2019-05-09T13:14:34.802Z,34.47
2019-05-09T13:17:19.655Z,34.93
2019-05-09T13:19:49.793Z,34.85
2019-05-09T13:22:18.333Z,35.47
2019-05-09T13:24:44.023Z,33.85
2019-05-09T13:27:10.331Z,33.04
2019-05-09T13:29:39.678Z,34.13
2019-05-09T13:32:05.832Z,33.60
2019-05-09T13:34:32.038Z,33.84
2019-05-09T13:36:59.055Z,33.17
2019-05-09T13:39:27.789Z,33.40
2019-05-09T13:41:53.728Z,33.25
2019-05-09T13:44:19.918Z,31.07
2019-05-09T13:46:48.595Z,31.16
2019-05-09T13:49:15.728Z,32.61
2019-05-09T13:51:51.005Z,31.45
2019-05-09T13:54:12.301Z,33.21
2019-05-09T13:56:38.592Z,32.83
2019-05-09T13:59:04.758Z,33.52
2019-05-09T14:01:34.041Z,33.96
2019-05-09T14:04:00.242Z,32.74
2019-05-09T14:06:27.724Z,33.16
2019-05-09T14:08:54.288Z,33.75
2019-05-09T14:11:20.479Z,33.22
2019-05-09T14:13:48.830Z,33.52
2019-05-09T14:16:21.548Z,33.96
2019-05-09T14:18:42.987Z,34.03
2019-05-09T14:21:09.290Z,33.34
2019-05-09T14:23:48.388Z,34.37
2019-05-09T14:26:09.141Z,34.78
2019-05-09T14:28:34.718Z,33.88
2019-05-09T14:31:00.872Z,34.47
2019-05-09T14:33:29.611Z,33.14
2019-05-09T14:35:59.611Z,32.86
2019-05-09T14:38:25.790Z,31.34
2019-05-09T14:40:51.967Z,32.58
2019-05-09T14:43:21.343Z,32.99
2019-05-09T14:45:48.379Z,33.29
2019-05-09T14:48:14.891Z,33.29
2019-05-09T14:50:41.059Z,32.65
2019-05-09T14:53:08.638Z,32.93
2019-05-09T14:55:35.125Z,33.07
2019-05-09T14:58:01.325Z,32.71
2019-05-09T15:00:27.490Z,29.30
2019-05-09T15:02:53.687Z,29.59
2019-05-09T15:05:19.872Z,27.76
2019-05-09T15:07:47.630Z,28.86
2019-05-09T15:10:14.100Z,29.13
2019-05-09T15:12:41.798Z,30.25
2019-05-09T15:15:08.792Z,29.93
2019-05-09T15:17:35.799Z,30.23
2019-05-09T15:20:03.457Z,28.98
2019-05-09T15:22:29.686Z,29.44
2019-05-09T15:24:55.880Z,27.93
2019-05-09T15:27:22.045Z,27.57
2019-05-09T15:29:48.727Z,28.45
2019-05-09T15:32:15.235Z,26.95
2019-05-09T15:34:41.437Z,27.91
2019-05-09T15:37:08.819Z,27.41
2019-05-09T15:39:37.959Z,29.02
2019-05-09T15:42:07.387Z,27.83
2019-05-09T15:44:33.545Z,28.23
2019-05-09T15:47:01.697Z,27.00
2019-05-09T15:49:28.574Z,28.41
2019-05-09T15:51:55.059Z,27.78
2019-05-09T15:54:21.264Z,28.14
2019-05-09T15:56:57.869Z,27.78
2019-05-09T15:59:23.779Z,27.08
2019-05-09T16:01:50.027Z,27.94
2019-05-09T16:04:17.678Z,26.88
2019-05-09T16:06:49.459Z,27.96
2019-05-09T16:09:13.558Z,28.01
2019-05-09T16:11:39.741Z,26.12
2019-05-09T16:14:07.603Z,26.33
2019-05-09T16:16:35.764Z,26.93
2019-05-09T16:19:03.756Z,26.95
2019-05-09T16:21:29.985Z,26.33
2019-05-09T16:23:59.075Z,26.87
2019-05-09T16:26:24.483Z,26.22
2019-05-09T16:28:50.693Z,26.23
2019-05-09T16:31:16.899Z,26.40
2019-05-09T16:33:43.151Z,24.80
2019-05-09T16:36:09.375Z,26.32
2019-05-09T16:38:45.061Z,26.07
2019-05-09T16:41:07.432Z,26.65
2019-05-09T16:43:33.697Z,25.88
2019-05-09T16:45:59.996Z,27.44
2019-05-09T16:48:27.716Z,27.10
2019-05-09T16:51:03.144Z,26.94
2019-05-09T16:53:25.154Z,26.74
2019-05-09T16:55:51.412Z,26.89
2019-05-09T16:58:18.542Z,26.77
2019-05-09T17:00:48.586Z,26.68
2019-05-09T17:03:14.759Z,26.20
2019-05-09T17:05:40.963Z,26.11
2019-05-09T17:08:08.200Z,27.40
2019-05-09T17:10:34.924Z,27.13
2019-05-09T17:13:01.144Z,27.54
2019-05-09T17:15:29.272Z,27.52
2019-05-09T17:17:55.461Z,27.35
2019-05-09T17:20:23.599Z,27.28
2019-05-09T17:23:14.440Z,27.17
2019-05-09T17:25:38.484Z,26.65
2019-05-09T17:28:06.796Z,27.01
2019-05-09T17:30:33.250Z,27.28
2019-05-09T17:33:03.498Z,25.86
2019-05-09T17:35:32.022Z,25.70
2019-05-09T17:37:58.392Z,25.52
2019-05-09T17:40:28.150Z,25.17
2019-05-09T17:42:54.651Z,25.17
2019-05-09T17:45:20.831Z,24.36
2019-05-09T17:47:48.669Z,23.90
2019-05-09T17:50:14.844Z,23.40
2019-05-09T17:52:41.227Z,24.57
2019-05-09T17:55:07.522Z,24.48
2019-05-09T17:57:38.607Z,24.44
2019-05-09T18:00:08.151Z,24.66
2019-05-09T18:02:34.444Z,24.48
2019-05-09T18:05:00.597Z,24.19
2019-05-09T18:07:28.010Z,24.27
2019-05-09T18:09:54.659Z,24.13
2019-05-09T18:12:20.846Z,23.76
2019-05-09T18:14:47.651Z,23.87
2019-05-09T18:17:13.961Z,24.40
2019-05-09T18:19:45.061Z,24.66
2019-05-09T18:22:14.126Z,24.00
2019-05-09T18:24:40.324Z,23.86
2019-05-09T18:27:07.751Z,23.58
2019-05-09T18:29:34.032Z,23.46
2019-05-09T18:32:19.191Z,23.28
2019-05-09T18:34:45.450Z,23.71
2019-05-09T18:37:11.748Z,23.05
2019-05-09T18:39:37.952Z,22.96
2019-05-09T18:42:04.281Z,23.02
2019-05-09T18:44:30.459Z,22.80
2019-05-09T18:46:57.661Z,22.64
2019-05-09T18:49:24.214Z,21.79
2019-05-09T18:52:02.789Z,22.32
2019-05-09T18:54:18.741Z,22.41
2019-05-09T18:56:45.005Z,22.52
2019-05-09T18:59:11.222Z,22.18
2019-05-09T19:01:37.385Z,22.33
2019-05-09T19:04:03.547Z,22.58
2019-05-09T19:06:29.727Z,23.07
2019-05-09T19:08:55.940Z,23.47
2019-05-09T19:11:22.202Z,23.32
2019-05-09T19:13:48.375Z,22.81
2019-05-09T19:16:16.517Z,23.49
2019-05-09T19:18:44.575Z,23.45
2019-05-09T19:21:15.313Z,22.81
2019-05-09T19:23:41.532Z,22.83
2019-05-09T19:26:09.594Z,23.69
2019-05-09T19:28:35.826Z,23.37
2019-05-09T19:31:02.149Z,23.95
2019-05-09T19:33:30.301Z,24.19
2019-05-09T19:35:56.618Z,23.71
2019-05-09T19:38:22.804Z,23.56
2019-05-09T19:40:48.987Z,23.55
2019-05-09T19:43:15.296Z,23.94
2019-05-09T19:45:41.503Z,24.03
2019-05-09T19:48:07.689Z,24.01
2019-05-09T19:50:33.848Z,24.41
2019-05-09T19:53:00.051Z,24.60
2019-05-09T19:55:26.267Z,24.62
2019-05-09T19:57:52.509Z,23.91
2019-05-09T20:00:19.095Z,23.84
2019-05-09T20:02:45.376Z,23.81
2019-05-09T20:05:11.570Z,23.78
2019-05-09T20:07:37.907Z,23.59
2019-05-09T20:10:09.850Z,24.09
2019-05-09T20:12:54.723Z,24.09
2019-05-09T20:15:22.289Z,23.98
2019-05-09T20:17:48.448Z,23.98
2019-05-09T20:20:14.653Z,23.79
2019-05-09T20:22:52.006Z,24.18
2019-05-09T20:25:09.481Z,23.91
2019-05-09T20:27:35.668Z,24.15
2019-05-09T20:30:03.590Z,24.15
2019-05-09T20:32:30.045Z,24.44
2019-05-09T20:34:56.221Z,24.60
2019-05-09T20:37:22.411Z,24.41
2019-05-09T20:39:48.645Z,24.16
2019-05-09T20:42:14.932Z,24.31
2019-05-09T20:44:41.107Z,24.46
2019-05-09T20:47:07.261Z,24.72
2019-05-09T20:49:33.461Z,24.53
2019-05-09T20:51:59.640Z,24.20
2019-05-09T20:54:25.892Z,24.17
2019-05-09T20:56:52.120Z,24.08
2019-05-09T20:59:18.257Z,24.22
2019-05-09T21:01:44.410Z,24.31
2019-05-09T21:04:10.628Z,24.52
2019-05-09T21:06:36.800Z,24.50
2019-05-09T21:09:05.557Z,24.65
2019-05-09T21:11:31.745Z,24.38
2019-05-09T21:13:57.915Z,24.20
2019-05-09T21:16:24.163Z,24.48
2019-05-09T21:18:50.375Z,24.20
2019-05-09T21:21:16.559Z,24.38
2019-05-09T21:23:42.721Z,23.92
2019-05-09T21:26:08.916Z,23.48
2019-05-09T21:28:35.099Z,23.77
2019-05-09T21:31:01.326Z,23.74
2019-05-09T21:33:27.629Z,23.22
2019-05-09T21:35:53.810Z,22.91
2019-05-09T21:38:19.955Z,23.12
2019-05-09T21:40:46.166Z,23.74
2019-05-09T21:43:12.333Z,23.75
2019-05-09T21:45:38.508Z,22.83
2019-05-09T21:48:04.707Z,22.07
2019-05-09T21:50:30.856Z,22.77
2019-05-09T21:52:57.335Z,23.32
2019-05-09T21:55:23.516Z,23.51
2019-05-09T21:57:49.695Z,23.80
2019-05-09T22:00:21.376Z,23.49
2019-05-09T22:02:47.583Z,23.34
2019-05-09T22:05:13.744Z,23.79
2019-05-09T22:07:39.891Z,24.13
2019-05-09T22:10:06.643Z,24.09
2019-05-09T22:12:32.868Z,23.12
2019-05-09T22:14:59.021Z,23.31
2019-05-09T22:17:29.973Z,22.73
2019-05-09T22:19:56.157Z,22.31
2019-05-09T22:22:22.310Z,23.43
2019-05-09T22:24:48.497Z,23.53
2019-05-09T22:27:14.676Z,24.09
2019-05-09T22:29:40.845Z,23.81
2019-05-09T22:32:07.192Z,23.60
2019-05-09T22:34:33.359Z,23.60
2019-05-09T22:36:59.516Z,23.70
2019-05-09T22:39:25.713Z,24.12
2019-05-09T22:41:51.884Z,23.96
2019-05-09T22:44:18.052Z,23.86
2019-05-09T22:46:44.233Z,24.17
2019-05-09T22:49:10.384Z,23.45
2019-05-09T22:51:36.568Z,23.32
2019-05-09T22:54:12.319Z,23.74
2019-05-09T22:56:31.031Z,23.78
2019-05-09T22:58:57.304Z,23.65
2019-05-09T23:01:23.600Z,24.09
2019-05-09T23:03:49.874Z,23.88
2019-05-09T23:06:16.051Z,24.13
2019-05-09T23:08:42.349Z,24.20
2019-05-09T23:11:08.500Z,24.51
2019-05-09T23:13:36.573Z,24.51
2019-05-09T23:16:02.854Z,24.25
2019-05-09T23:18:29.020Z,24.41
2019-05-09T23:20:55.695Z,24.08
2019-05-09T23:23:38.643Z,24.17
2019-05-09T23:26:04.917Z,24.20
2019-05-09T23:28:31.191Z,24.50
2019-05-09T23:30:59.285Z,24.57
2019-05-09T23:33:27.706Z,24.63
2019-05-09T23:35:53.865Z,24.80
2019-05-09T23:38:20.185Z,24.63
2019-05-09T23:40:46.328Z,24.40
2019-05-09T23:43:12.509Z,24.26
2019-05-09T23:45:38.796Z,24.23
2019-05-09T23:48:04.953Z,24.53
2019-05-09T23:50:31.126Z,23.76
2019-05-09T23:52:57.322Z,23.03
2019-05-09T23:55:42.095Z,23.32
2019-05-09T23:58:26.491Z,23.93
